Time;durP1;ratioP1;P1;durP2;ratioP2;P2;SDS_P1;SDS_P2;PMS_P1;PMS_P2;Temp;Humidity;BMP_temperature;BMP_pressure;BME280_temperature;BME280_humidity;BME280_pressure;Samples;Min_cycle;Max_cycle;Signal;HPM_P1;HPM_P2
2024/02/05 00:01:28;;;;;;;6.30;2.50;;;;;;;6.37;80.50;99009.30;129736;1270;107734;-83
2024/02/05 00:04:33;;;;;;;3.60;2.00;;;;;;;6.42;80.25;98994.65;129680;1270;108719;-83
2024/02/05 00:07:39;;;;;;;5.10;2.10;;;;;;;6.45;80.38;99002.33;129790;1270;107431;-83
2024/02/05 00:10:46;;;;;;;4.90;2.30;;;;;;;6.46;80.18;99006.23;129694;1268;108526;-83
2024/02/05 00:13:51;;;;;;;3.90;2.00;;;;;;;6.45;80.59;98995.40;129691;1270;106358;-83
2024/02/05 00:16:57;;;;;;;3.60;1.70;;;;;;;6.43;80.57;98992.84;129776;1263;106286;-83
2024/02/05 00:20:03;;;;;;;3.70;2.00;;;;;;;6.44;80.84;98984.40;129715;1270;107663;-82
2024/02/05 00:23:09;;;;;;;6.20;2.40;;;;;;;6.49;80.38;98983.55;129671;1264;106352;-83
2024/02/05 00:26:14;;;;;;;3.40;2.20;;;;;;;6.52;80.66;98972.44;129696;1265;107702;-81
2024/02/05 00:29:23;;;;;;;4.50;2.20;;;;;;;6.54;80.47;98979.38;129693;1264;107675;-82
2024/02/05 00:32:29;;;;;;;5.20;2.60;;;;;;;6.55;80.33;98974.08;129706;1270;107305;-83
2024/02/05 00:35:34;;;;;;;5.40;2.30;;;;;;;6.55;80.30;98966.98;129686;1270;107021;-83
2024/02/05 00:38:40;;;;;;;5.40;1.60;;;;;;;6.56;80.19;98969.44;129698;1264;108658;-81
2024/02/05 00:41:45;;;;;;;5.60;1.70;;;;;;;6.56;80.14;98963.21;129690;1264;107630;-81
2024/02/05 00:44:51;;;;;;;4.50;2.10;;;;;;;6.56;80.04;98963.94;129679;1264;107861;-84
2024/02/05 00:47:57;;;;;;;5.00;1.80;;;;;;;6.63;80.11;98956.16;129685;1269;106919;-82
2024/02/05 00:51:03;;;;;;;4.40;2.20;;;;;;;6.67;80.16;98957.66;129702;1270;108659;-82
2024/02/05 00:54:09;;;;;;;3.30;1.80;;;;;;;6.71;80.06;98961.45;129706;1270;107885;-82
2024/02/05 00:57:14;;;;;;;4.20;1.90;;;;;;;6.71;79.75;98955.49;129739;1268;108645;-84
2024/02/05 01:00:20;;;;;;;5.10;2.00;;;;;;;6.71;79.79;98950.36;129691;1269;108797;-82
2024/02/05 01:03:25;;;;;;;5.30;2.00;;;;;;;6.67;79.97;98945.64;129745;1264;106908;-83
2024/02/05 01:06:31;;;;;;;4.50;1.80;;;;;;;6.65;80.04;98943.90;129681;1269;107272;-83
2024/02/05 01:09:37;;;;;;;4.10;1.70;;;;;;;6.64;80.18;98942.41;129860;1263;106857;-83
2024/02/05 01:12:43;;;;;;;5.90;2.90;;;;;;;6.63;80.76;98949.23;129701;1264;106435;-84
2024/02/05 01:15:48;;;;;;;4.10;2.10;;;;;;;6.61;81.46;98953.34;129724;1270;107195;-82
2024/02/05 01:18:54;;;;;;;4.30;2.00;;;;;;;6.59;81.64;98951.08;129711;1264;106675;-83
2024/02/05 01:21:59;;;;;;;4.20;1.90;;;;;;;6.55;81.82;98947.41;129718;1269;107817;-83
2024/02/05 01:25:05;;;;;;;4.80;2.00;;;;;;;6.51;82.71;98946.43;129752;1269;106515;-83
2024/02/05 01:28:11;;;;;;;4.10;2.30;;;;;;;6.44;82.87;98945.68;129666;1270;108655;-83
2024/02/05 01:31:17;;;;;;;3.20;1.70;;;;;;;6.44;82.63;98942.93;129695;1264;107829;-83
2024/02/05 01:34:22;;;;;;;5.80;1.70;;;;;;;6.45;83.21;98937.88;129648;1268;108700;-83
2024/02/05 01:37:28;;;;;;;4.00;2.10;;;;;;;6.47;83.40;98940.05;129709;1264;108670;-84
2024/02/05 01:40:34;;;;;;;4.30;1.90;;;;;;;6.52;83.24;98936.56;129684;1264;107794;-83
2024/02/05 01:43:40;;;;;;;4.40;2.50;;;;;;;6.55;83.31;98926.35;129734;1269;108699;-82
2024/02/05 01:46:46;;;;;;;3.20;2.00;;;;;;;6.56;83.46;98932.34;129709;1270;107295;-82
2024/02/05 01:49:51;;;;;;;3.50;1.70;;;;;;;6.54;83.98;98919.48;129738;1268;108732;-83
2024/02/05 01:52:57;;;;;;;2.10;1.50;;;;;;;6.50;84.12;98920.40;129667;1263;107766;-82
2024/02/05 01:56:04;;;;;;;3.10;1.80;;;;;;;6.47;84.34;98910.02;129664;1264;107851;-82
2024/02/05 01:59:10;;;;;;;3.10;1.70;;;;;;;6.49;84.17;98897.50;129627;1264;108465;-82
2024/02/05 02:02:16;;;;;;;2.60;1.90;;;;;;;6.53;84.34;98900.47;129684;1269;106442;-83
2024/02/05 02:05:23;;;;;;;4.40;2.10;;;;;;;6.53;84.14;98894.04;130054;1269;107704;-82
2024/02/05 02:08:30;;;;;;;3.10;2.20;;;;;;;6.55;84.19;98890.73;130000;1268;108758;-83
2024/02/05 02:11:36;;;;;;;77.70;28.30;;;;;;;6.53;84.25;98892.23;129673;1267;106967;-82
2024/02/05 02:14:41;;;;;;;7.30;3.40;;;;;;;6.50;84.61;98881.32;129675;1264;106275;-83
2024/02/05 02:17:49;;;;;;;9.20;3.20;;;;;;;6.51;84.83;98871.15;129701;1264;108448;-83
2024/02/05 02:20:57;;;;;;;4.30;2.70;;;;;;;6.54;84.79;98868.34;129705;1269;108778;-84
2024/02/05 02:24:03;;;;;;;4.40;2.80;;;;;;;6.56;85.10;98875.36;129724;1270;108774;-84
2024/02/05 02:27:09;;;;;;;3.20;2.50;;;;;;;6.51;85.13;98871.51;129681;1268;108616;-84
2024/02/05 02:30:17;;;;;;;4.50;2.60;;;;;;;6.49;85.21;98867.83;129673;1264;109302;-83
2024/02/05 02:33:31;;;;;;;3.40;2.30;;;;;;;6.46;85.27;98861.61;129698;1269;107691;-84
2024/02/05 02:36:45;;;;;;;2.80;1.80;;;;;;;6.41;85.31;98856.69;129732;1270;107688;-83
2024/02/05 02:39:59;;;;;;;2.70;1.90;;;;;;;6.37;85.52;98852.35;129686;1264;107556;-84
2024/02/05 02:43:08;;;;;;;3.30;2.10;;;;;;;6.41;85.46;98831.38;129692;1269;107824;-84
2024/02/05 02:46:14;;;;;;;3.20;2.30;;;;;;;6.47;85.15;98828.86;129730;1270;108654;-84
2024/02/05 02:49:19;;;;;;;3.00;2.10;;;;;;;6.50;85.21;98835.08;129692;1270;107580;-84
2024/02/05 02:52:25;;;;;;;5.50;3.00;;;;;;;6.48;85.24;98824.17;129689;1270;106547;-84
2024/02/05 02:55:30;;;;;;;3.50;2.10;;;;;;;6.47;85.67;98832.05;129695;1269;108058;-82
2024/02/05 02:58:36;;;;;;;4.10;2.30;;;;;;;6.48;85.27;98831.38;129665;1264;107687;-83
2024/02/05 03:01:41;;;;;;;2.60;2.00;;;;;;;6.52;85.20;98815.43;129715;1270;106842;-83
2024/02/05 03:04:47;;;;;;;3.00;2.00;;;;;;;6.58;85.17;98815.81;129664;1270;106237;-83
2024/02/05 03:07:53;;;;;;;3.00;2.10;;;;;;;6.61;84.85;98819.72;129828;1269;108717;-83
2024/02/05 03:10:59;;;;;;;3.20;2.20;;;;;;;6.61;84.99;98812.86;129713;1278;108624;-83
2024/02/05 03:14:04;;;;;;;2.70;1.80;;;;;;;6.56;85.20;98810.58;129625;1268;108612;-84
2024/02/05 03:17:10;;;;;;;2.60;1.80;;;;;;;6.52;85.39;98819.64;129725;1265;108511;-82
2024/02/05 03:20:35;;;;;;;3.50;2.20;;;;;;;6.51;85.06;98817.16;129676;1263;108398;-82
2024/02/05 03:23:42;;;;;;;3.70;2.20;;;;;;;6.55;85.15;98794.30;129723;1268;108782;-83
2024/02/05 03:26:48;;;;;;;2.90;2.00;;;;;;;6.59;85.25;98793.29;129730;1264;108889;-82
2024/02/05 03:29:54;;;;;;;2.10;1.90;;;;;;;6.60;85.13;98796.89;129821;1264;108609;-90
2024/02/05 03:33:00;;;;;;;2.40;2.00;;;;;;;6.55;85.59;98793.37;130337;1264;107184;-84
2024/02/05 03:36:06;;;;;;;3.00;1.70;;;;;;;6.52;85.04;98800.64;129823;1278;108319;-87
2024/02/05 03:39:12;;;;;;;2.40;1.80;;;;;;;6.52;85.81;98800.40;129915;1270;106965;-87
2024/02/05 03:42:18;;;;;;;3.50;2.40;;;;;;;6.52;85.43;98798.24;129914;1269;106439;-89
2024/02/05 03:45:30;;;;;;;17.10;7.20;;;;;;;6.56;85.64;98798.73;130008;1268;106318;-86
2024/02/05 03:48:36;;;;;;;8.90;4.60;;;;;;;6.61;85.94;98804.75;129749;1264;106854;-92
2024/02/05 03:51:42;;;;;;;10.90;4.30;;;;;;;6.57;86.15;98807.33;129790;1270;109672;-75
2024/02/05 03:54:48;;;;;;;38.00;11.70;;;;;;;6.49;86.30;98812.71;129591;1270;107432;-75
2024/02/05 03:58:02;;;;;;;37.20;12.50;;;;;;;6.46;86.01;98808.55;129813;1264;107808;-76
2024/02/05 04:01:08;;;;;;;126.00;28.10;;;;;;;6.46;86.78;98806.88;129892;1264;108053;-75
2024/02/05 04:04:13;;;;;;;7.30;3.00;;;;;;;6.48;86.43;98803.84;129673;1266;108658;-75
2024/02/05 04:07:19;;;;;;;52.90;16.60;;;;;;;6.50;86.83;98796.05;129568;1265;108395;-76
2024/02/05 04:10:24;;;;;;;105.10;32.90;;;;;;;6.48;87.14;98791.24;129573;1270;108679;-75
2024/02/05 04:13:30;;;;;;;34.90;11.40;;;;;;;6.46;87.12;98793.95;129560;1265;107797;-76
2024/02/05 04:16:35;;;;;;;87.90;29.50;;;;;;;6.41;86.86;98792.36;129584;1270;108727;-77
2024/02/05 04:19:44;;;;;;;75.10;25.20;;;;;;;6.43;86.82;98791.34;129585;1270;108455;-75
2024/02/05 04:22:50;;;;;;;71.60;23.60;;;;;;;6.48;86.86;98791.48;129595;1270;108869;-76
2024/02/05 04:25:55;;;;;;;44.90;16.60;;;;;;;6.53;86.40;98800.95;129561;1264;108630;-75
2024/02/05 04:29:01;;;;;;;59.80;20.10;;;;;;;6.56;86.37;98794.90;129564;1270;106466;-76
2024/02/05 04:32:07;;;;;;;74.20;30.70;;;;;;;6.53;86.15;98787.91;129623;1264;106557;-75
2024/02/05 04:35:13;;;;;;;60.50;22.80;;;;;;;6.47;86.14;98786.13;129555;1265;108002;-75
2024/02/05 04:38:19;;;;;;;45.20;21.40;;;;;;;6.46;86.51;98788.98;129571;1265;107143;-75
2024/02/05 04:41:24;;;;;;;42.10;18.60;;;;;;;6.47;86.55;98791.47;129601;1270;107768;-75
2024/02/05 04:44:30;;;;;;;38.90;20.00;;;;;;;6.46;86.60;98805.05;129581;1265;107123;-75
2024/02/05 04:47:35;;;;;;;60.40;26.40;;;;;;;6.43;86.38;98783.45;129602;1270;107821;-76
2024/02/05 04:50:41;;;;;;;13.50;6.30;;;;;;;6.43;86.62;98763.67;129602;1265;106286;-76
2024/02/05 04:53:46;;;;;;;34.00;14.70;;;;;;;6.41;86.25;98772.19;129602;1268;108681;-75
2024/02/05 04:56:52;;;;;;;7.90;3.70;;;;;;;6.36;86.20;98778.21;129569;1268;108284;-76
2024/02/05 04:59:57;;;;;;;20.60;9.10;;;;;;;6.32;86.90;98784.20;129571;1264;108125;-75
2024/02/05 05:03:03;;;;;;;3.40;2.00;;;;;;;6.32;86.91;98778.85;129680;1268;108741;-75
2024/02/05 05:06:09;;;;;;;9.80;4.90;;;;;;;6.32;86.91;98772.36;129572;1278;107839;-75
2024/02/05 05:09:15;;;;;;;27.60;11.60;;;;;;;6.32;86.87;98779.88;129528;1269;106828;-75
2024/02/05 05:12:20;;;;;;;210.60;77.00;;;;;;;6.35;86.98;98769.16;129602;1270;108664;-76
2024/02/05 05:15:26;;;;;;;138.00;50.50;;;;;;;6.38;86.82;98755.75;129564;1270;108499;-76
2024/02/05 05:18:32;;;;;;;262.60;90.60;;;;;;;6.39;86.84;98754.40;129626;1264;106146;-76
2024/02/05 05:21:37;;;;;;;272.30;92.20;;;;;;;6.39;87.05;98754.65;129535;1269;108758;-75
2024/02/05 05:24:44;;;;;;;276.20;87.20;;;;;;;6.39;86.96;98756.72;129566;1264;107602;-76
2024/02/05 05:27:49;;;;;;;105.30;36.30;;;;;;;6.45;86.93;98767.27;129589;1278;108752;-78
2024/02/05 05:30:55;;;;;;;283.20;104.10;;;;;;;6.46;86.86;98772.25;129590;1264;107833;-77
2024/02/05 05:34:00;;;;;;;110.40;37.00;;;;;;;6.43;87.24;98773.65;129589;1270;107805;-75
2024/02/05 05:37:06;;;;;;;35.70;12.70;;;;;;;6.41;87.56;98769.80;129559;1264;108634;-77
2024/02/05 05:40:13;;;;;;;14.60;5.50;;;;;;;6.38;87.47;98787.75;129602;1264;107785;-75
2024/02/05 05:43:18;;;;;;;75.10;27.80;;;;;;;6.37;87.71;98791.95;129595;1270;108820;-75
2024/02/05 05:46:24;;;;;;;91.20;36.30;;;;;;;6.42;87.63;98780.30;129573;1270;108628;-76
2024/02/05 05:49:30;;;;;;;256.60;98.00;;;;;;;6.47;87.53;98782.14;129594;1268;106444;-75
2024/02/05 05:52:36;;;;;;;78.80;31.80;;;;;;;6.52;87.22;98778.42;129694;1264;107809;-75
2024/02/05 05:55:42;;;;;;;49.50;21.60;;;;;;;6.54;87.62;98780.36;129745;1269;108730;-75
2024/02/05 05:58:52;;;;;;;20.40;10.30;;;;;;;6.49;87.86;98782.36;130820;1267;106262;-75
2024/02/05 06:01:58;;;;;;;24.80;13.00;;;;;;;6.50;87.65;98794.46;129584;1268;108513;-76
2024/02/05 06:05:05;;;;;;;4.50;2.90;;;;;;;6.54;87.57;98806.36;129660;1270;108554;-76
2024/02/05 06:08:11;;;;;;;14.20;8.60;;;;;;;6.57;87.55;98808.52;129624;1279;107411;-77
2024/02/05 06:11:16;;;;;;;29.30;19.80;;;;;;;6.58;87.73;98805.57;129607;1270;106606;-74
2024/02/05 06:14:22;;;;;;;4.90;3.50;;;;;;;6.60;87.85;98817.73;129521;1269;107918;-75
2024/02/05 06:17:28;;;;;;;9.00;7.00;;;;;;;6.58;88.36;98826.64;129542;1281;108552;-75
2024/02/05 06:20:35;;;;;;;4.50;3.70;;;;;;;6.52;88.01;98809.90;129486;1268;106423;-75
2024/02/05 06:23:40;;;;;;;2.20;1.90;;;;;;;6.51;88.53;98807.58;129553;1270;106557;-75
2024/02/05 06:26:48;;;;;;;1.90;1.60;;;;;;;6.52;88.79;98814.73;129489;1281;108491;-76
2024/02/05 06:29:54;;;;;;;2.40;1.90;;;;;;;6.50;88.34;98807.98;129524;1269;107846;-77
2024/02/05 06:33:00;;;;;;;2.40;1.50;;;;;;;6.52;88.39;98804.77;129567;1279;108648;-77
2024/02/05 06:36:06;;;;;;;2.10;1.40;;;;;;;6.55;88.33;98813.55;129554;1269;107766;-76
2024/02/05 06:39:13;;;;;;;2.90;2.10;;;;;;;6.58;88.66;98821.34;129576;1270;106898;-77
2024/02/05 06:42:19;;;;;;;5.80;4.40;;;;;;;6.59;88.97;98830.95;129593;1267;106651;-77
2024/02/05 06:45:25;;;;;;;4.10;2.40;;;;;;;6.60;88.63;98823.02;129525;1267;107595;-77
2024/02/05 06:48:34;;;;;;;6.80;4.30;;;;;;;6.63;89.02;98829.30;129537;1270;107590;-78
2024/02/05 06:51:39;;;;;;;3.30;1.70;;;;;;;6.59;89.05;98832.14;129642;1280;107636;-77
2024/02/05 06:54:45;;;;;;;3.10;2.00;;;;;;;6.63;88.39;98829.61;129513;1269;106499;-77
2024/02/05 06:57:50;;;;;;;4.00;2.10;;;;;;;6.65;88.83;98833.84;129530;1270;107201;-77
2024/02/05 07:00:56;;;;;;;3.10;1.90;;;;;;;6.69;88.71;98826.34;129523;1269;106850;-79
2024/02/05 07:04:02;;;;;;;2.40;1.70;;;;;;;6.78;88.52;98830.17;129614;1269;106436;-76
2024/02/05 07:07:07;;;;;;;3.00;2.00;;;;;;;6.79;88.47;98833.03;129566;1270;109568;-77
2024/02/05 07:10:13;;;;;;;1.70;1.30;;;;;;;6.78;88.45;98839.56;129614;1270;108695;-77
2024/02/05 07:13:19;;;;;;;3.00;1.20;;;;;;;6.82;88.66;98842.09;129560;1264;108597;-77
2024/02/05 07:16:25;;;;;;;1.90;1.40;;;;;;;6.87;88.37;98844.24;129557;1270;105564;-79
2024/02/05 07:19:30;;;;;;;2.10;1.30;;;;;;;6.89;88.11;98844.69;129606;1269;107794;-77
2024/02/05 07:22:36;;;;;;;1.70;1.30;;;;;;;6.88;87.96;98854.48;129505;1270;108886;-77
2024/02/05 07:25:42;;;;;;;1.30;1.00;;;;;;;6.84;88.23;98847.85;129518;1280;108134;-77
2024/02/05 07:28:47;;;;;;;1.40;1.20;;;;;;;6.86;88.20;98841.83;129518;1269;106804;-77
2024/02/05 07:31:53;;;;;;;1.80;1.30;;;;;;;6.93;88.18;98844.85;129541;1269;107824;-76
2024/02/05 07:34:59;;;;;;;6.30;3.00;;;;;;;6.97;87.72;98846.02;129551;1269;107164;-77
2024/02/05 07:38:04;;;;;;;7.80;3.50;;;;;;;6.95;87.67;98843.52;129572;1270;108793;-77
2024/02/05 07:41:10;;;;;;;5.00;2.50;;;;;;;6.94;87.74;98855.10;129635;1270;108783;-77
2024/02/05 07:44:16;;;;;;;27.00;10.10;;;;;;;6.98;87.62;98852.38;129591;1269;108684;-77
2024/02/05 07:47:21;;;;;;;28.70;12.40;;;;;;;7.07;87.44;98855.70;129601;1270;108630;-76
2024/02/05 07:50:27;;;;;;;66.10;25.90;;;;;;;7.14;86.92;98866.15;129618;1277;107536;-79
2024/02/05 07:53:33;;;;;;;18.30;6.90;;;;;;;7.14;86.83;98867.73;129841;1268;106898;-76
2024/02/05 07:56:38;;;;;;;19.60;7.30;;;;;;;7.10;86.66;98861.20;129630;1280;107076;-76
2024/02/05 07:59:44;;;;;;;73.90;24.50;;;;;;;7.14;86.50;98856.73;129624;1269;108671;-76
2024/02/05 08:02:49;;;;;;;50.80;17.90;;;;;;;7.18;86.25;98863.66;129616;1266;108694;-75
2024/02/05 08:05:56;;;;;;;39.80;13.80;;;;;;;7.24;86.49;98861.94;129637;1270;108471;-75
2024/02/05 08:09:04;;;;;;;2.90;1.40;;;;;;;7.34;85.69;98862.53;129678;1269;107501;-76
2024/02/05 08:12:12;;;;;;;7.10;2.20;;;;;;;7.31;85.08;98872.21;129637;1270;108681;-76
2024/02/05 08:15:17;;;;;;;60.50;20.40;;;;;;;7.29;85.43;98874.73;129634;1270;108961;-76
2024/02/05 08:18:23;;;;;;;42.90;17.40;;;;;;;7.33;85.51;98879.04;129644;1271;106464;-79
2024/02/05 08:21:29;;;;;;;11.00;4.80;;;;;;;7.40;85.43;98884.46;129642;1269;106744;-76
2024/02/05 08:24:36;;;;;;;37.70;17.40;;;;;;;7.48;85.44;98886.80;129629;1270;106582;-76
2024/02/05 08:27:42;;;;;;;10.00;4.80;;;;;;;7.53;85.39;98895.13;129652;1270;107627;-79
2024/02/05 08:30:48;;;;;;;507.10;191.30;;;;;;;7.54;85.37;98901.41;129622;1271;106715;-78
2024/02/05 08:33:53;;;;;;;88.90;29.90;;;;;;;7.57;85.64;98902.49;129664;1269;107062;-78
2024/02/05 08:36:59;;;;;;;159.60;53.60;;;;;;;7.54;85.52;98905.28;129592;1270;107420;-77
2024/02/05 08:40:05;;;;;;;60.00;19.00;;;;;;;7.49;85.78;98913.05;129546;1280;108664;-78
2024/02/05 08:43:11;;;;;;;12.80;4.30;;;;;;;7.45;85.83;98912.63;129614;1271;108724;-78
2024/02/05 08:46:16;;;;;;;61.40;25.30;;;;;;;7.44;86.07;98928.11;129629;1270;106917;-78
2024/02/05 08:49:22;;;;;;;16.00;6.70;;;;;;;7.48;86.35;98917.60;129581;1273;107655;-80
2024/02/05 08:52:27;;;;;;;69.00;37.20;;;;;;;7.55;86.72;98921.88;129501;1278;107605;-78
2024/02/05 08:55:33;;;;;;;14.50;8.70;;;;;;;7.61;86.32;98923.07;129502;1281;109518;-78
2024/02/05 08:58:39;;;;;;;118.00;65.30;;;;;;;7.69;86.04;98922.40;129571;1267;106415;-79
2024/02/05 09:01:45;;;;;;;14.80;8.20;;;;;;;7.76;85.76;98925.18;129636;1270;106433;-79
2024/02/05 09:04:51;;;;;;;9.80;5.00;;;;;;;7.79;85.49;98930.85;129596;1268;108768;-79
2024/02/05 09:07:56;;;;;;;8.10;5.30;;;;;;;7.81;85.29;98937.36;129563;1270;108664;-79
2024/02/05 09:11:02;;;;;;;4.90;2.90;;;;;;;7.81;84.50;98936.02;129565;1278;108102;-79
2024/02/05 09:14:08;;;;;;;6.30;4.80;;;;;;;7.75;83.89;98935.44;129572;1277;107754;-79
2024/02/05 09:17:13;;;;;;;2.70;1.30;;;;;;;7.78;83.98;98941.94;129582;1277;108032;-79
2024/02/05 09:20:19;;;;;;;3.50;2.80;;;;;;;7.81;83.34;98941.95;129584;1269;107757;-79
2024/02/05 09:23:25;;;;;;;3.40;1.30;;;;;;;7.88;83.33;98949.58;129578;1270;108058;-79
2024/02/05 09:26:30;;;;;;;4.20;2.90;;;;;;;7.90;83.09;98953.29;129577;1277;106717;-79
2024/02/05 09:29:36;;;;;;;7.10;5.40;;;;;;;7.90;82.45;98958.59;129557;1270;107086;-79
2024/02/05 09:32:42;;;;;;;7.40;5.30;;;;;;;7.87;82.88;98961.34;129551;1271;107879;-79
2024/02/05 09:35:48;;;;;;;2.50;1.60;;;;;;;7.88;82.91;98965.70;129601;1276;107872;-79
2024/02/05 09:38:54;;;;;;;4.20;2.60;;;;;;;7.88;82.66;98966.27;129578;1277;108644;-79
2024/02/05 09:42:02;;;;;;;1.70;1.40;;;;;;;7.91;83.09;98962.34;129585;1270;107709;-79
2024/02/05 09:45:12;;;;;;;2.10;1.50;;;;;;;7.94;82.68;98969.51;129869;1270;107592;-77
2024/02/05 09:48:20;;;;;;;3.20;1.50;;;;;;;7.93;83.40;98959.45;129879;1270;107933;-77
2024/02/05 09:51:27;;;;;;;2.00;1.30;;;;;;;7.97;83.65;98957.77;129877;1263;106831;-77
2024/02/05 09:54:33;;;;;;;2.60;1.50;;;;;;;8.07;83.66;98954.21;129873;1269;108941;-78
2024/02/05 09:57:39;;;;;;;9.00;5.30;;;;;;;8.10;82.91;98962.58;129868;1267;108777;-77
2024/02/05 10:00:44;;;;;;;32.60;18.30;;;;;;;8.14;83.04;98949.55;129704;1277;106613;-78
2024/02/05 10:03:53;;;;;;;46.10;28.60;;;;;;;8.19;83.00;98954.80;129656;1270;108004;-78
2024/02/05 10:06:59;;;;;;;12.40;7.40;;;;;;;8.24;82.77;98955.55;129628;1268;108774;-82
2024/02/05 10:10:06;;;;;;;19.90;10.50;;;;;;;8.21;82.21;98956.17;129716;1270;108782;-80
2024/02/05 10:13:14;;;;;;;5.90;3.30;;;;;;;8.17;81.82;98958.39;129670;1270;106702;-82
2024/02/05 10:16:20;;;;;;;8.80;4.90;;;;;;;8.17;82.14;98949.91;129805;1274;106733;-83
2024/02/05 10:19:25;;;;;;;30.40;17.20;;;;;;;8.22;82.20;98941.77;129752;1270;107038;-84
2024/02/05 10:22:31;;;;;;;9.50;4.50;;;;;;;8.31;81.87;98942.00;129742;1269;108732;-83
2024/02/05 10:25:37;;;;;;;4.20;2.50;;;;;;;8.26;81.30;98940.96;129679;1270;106502;-82
2024/02/05 10:28:42;;;;;;;5.70;2.80;;;;;;;8.21;80.92;98935.66;129721;1280;108470;-83
2024/02/05 10:31:49;;;;;;;5.90;3.80;;;;;;;8.28;81.37;98931.38;129832;1278;108701;-83
2024/02/05 10:34:56;;;;;;;3.80;2.10;;;;;;;8.36;80.93;98936.11;129761;1268;107882;-81
2024/02/05 10:38:10;;;;;;;7.70;3.20;;;;;;;8.45;80.97;98936.94;129722;1277;107774;-81
2024/02/05 10:41:16;;;;;;;23.90;13.20;;;;;;;8.56;80.80;98931.78;129658;1270;108674;-81
2024/02/05 10:44:22;;;;;;;3.30;2.20;;;;;;;8.59;79.37;98930.77;129812;1270;108753;-81
2024/02/05 10:47:27;;;;;;;10.90;7.10;;;;;;;8.52;78.45;98931.36;129748;1277;107811;-81
2024/02/05 10:50:33;;;;;;;6.10;4.10;;;;;;;8.55;79.21;98931.51;129725;1270;107669;-81
2024/02/05 10:53:43;;;;;;;4.80;3.30;;;;;;;8.57;79.65;98928.15;129709;1269;108746;-80
2024/02/05 10:56:51;;;;;;;3.10;1.70;;;;;;;8.59;77.94;98932.20;129691;1277;107626;-83
2024/02/05 10:59:56;;;;;;;3.30;2.30;;;;;;;8.55;77.47;98928.73;129720;1264;107840;-83
2024/02/05 11:03:08;;;;;;;3.20;1.60;;;;;;;8.49;76.63;98936.33;130026;1270;107839;-82
2024/02/05 11:06:17;;;;;;;2.10;0.90;;;;;;;8.51;77.46;98931.63;129589;1277;107750;-77
2024/02/05 11:09:25;;;;;;;1.60;1.00;;;;;;;8.50;75.45;98942.41;129608;1264;106390;-78
2024/02/05 11:12:32;;;;;;;1.80;1.00;;;;;;;8.47;76.31;98945.00;129632;1271;107862;-76
2024/02/05 11:15:41;;;;;;;1.00;0.90;;;;;;;8.51;76.18;98943.40;129639;1277;107905;-79
2024/02/05 11:18:50;;;;;;;1.70;0.80;;;;;;;8.51;74.92;98944.79;129765;1264;109019;-82
2024/02/05 11:21:58;;;;;;;2.50;1.20;;;;;;;8.47;74.95;98943.61;129774;1280;107694;-83
2024/02/05 11:25:05;;;;;;;1.30;0.90;;;;;;;8.49;75.97;98940.42;129801;1264;107539;-79
2024/02/05 11:28:13;;;;;;;2.10;1.10;;;;;;;8.49;75.40;98938.76;129778;1277;108560;-83
2024/02/05 11:31:24;;;;;;;1.70;0.90;;;;;;;8.46;75.95;98931.66;129782;1277;107989;-81
2024/02/05 11:34:36;;;;;;;1.70;1.10;;;;;;;8.46;76.23;98934.84;129724;1270;107553;-81
2024/02/05 11:37:44;;;;;;;1.50;1.10;;;;;;;8.39;74.38;98949.95;129669;1277;106868;-81
2024/02/05 11:40:50;;;;;;;1.50;0.90;;;;;;;8.34;74.63;98946.59;129686;1267;106692;-81
2024/02/05 11:44:06;;;;;;;1.60;1.00;;;;;;;8.35;75.44;98943.48;129623;1270;107598;-81
2024/02/05 11:47:12;;;;;;;1.90;1.00;;;;;;;8.37;73.97;98942.19;129669;1267;106525;-81
2024/02/05 11:50:20;;;;;;;1.80;1.20;;;;;;;8.48;74.92;98942.82;129671;1267;107640;-81
2024/02/05 11:53:26;;;;;;;3.70;1.40;;;;;;;8.59;74.53;98944.42;129645;1281;107584;-81
2024/02/05 11:56:32;;;;;;;2.00;1.00;;;;;;;8.68;74.01;98947.89;129621;1269;107629;-81
2024/02/05 11:59:37;;;;;;;1.80;1.10;;;;;;;8.73;74.78;98947.43;129595;1270;108659;-80
2024/02/05 12:02:44;;;;;;;3.40;1.50;;;;;;;8.77;73.34;98948.06;129582;1270;107139;-79
2024/02/05 12:05:51;;;;;;;2.10;1.20;;;;;;;8.76;74.39;98946.92;129667;1270;108757;-78
2024/02/05 12:08:57;;;;;;;1.50;0.80;;;;;;;8.74;73.92;98952.06;129608;1264;106658;-79
2024/02/05 12:12:03;;;;;;;1.60;0.90;;;;;;;8.66;74.15;98954.44;129601;1277;108696;-79
2024/02/05 12:15:19;;;;;;;3.00;1.10;;;;;;;8.56;73.56;98959.96;129607;1269;107400;-79
2024/02/05 12:18:24;;;;;;;1.80;0.90;;;;;;;8.40;73.52;98959.63;129641;1270;108333;-79
2024/02/05 12:21:31;;;;;;;1.90;1.00;;;;;;;8.34;73.89;98959.21;129599;1269;107773;-79
2024/02/05 12:24:50;;;;;;;2.40;1.10;;;;;;;8.23;74.05;98964.48;129659;1270;107151;-79
2024/02/05 12:27:56;;;;;;;1.90;0.90;;;;;;;8.10;75.09;98969.45;129598;1278;106607;-80
2024/02/05 12:31:01;;;;;;;1.90;1.10;;;;;;;8.02;76.68;98971.77;129569;1264;106519;-80
2024/02/05 12:34:07;;;;;;;2.70;1.40;;;;;;;8.00;77.39;98962.44;129568;1271;106727;-80
2024/02/05 12:37:14;;;;;;;9.00;5.00;;;;;;;8.06;78.02;98969.56;129600;1270;106428;-79
2024/02/05 12:40:21;;;;;;;14.80;7.30;;;;;;;8.08;78.52;98967.20;129570;1264;106782;-80
2024/02/05 12:43:29;;;;;;;47.40;20.20;;;;;;;8.06;78.81;98964.05;129572;1270;108764;-80
2024/02/05 12:46:35;;;;;;;11.30;5.90;;;;;;;8.11;78.54;98967.40;129589;1271;108344;-80
2024/02/05 12:49:41;;;;;;;18.00;9.90;;;;;;;8.09;78.64;98962.29;129602;1270;107884;-80
2024/02/05 12:52:47;;;;;;;24.20;12.40;;;;;;;8.11;78.52;98964.25;129598;1269;108611;-80
2024/02/05 12:55:54;;;;;;;17.40;9.90;;;;;;;8.10;78.64;98967.29;129604;1270;107351;-80
2024/02/05 12:59:01;;;;;;;9.00;4.40;;;;;;;8.08;78.75;98976.59;129553;1270;108657;-80
2024/02/05 13:02:07;;;;;;;4.60;2.20;;;;;;;8.00;79.04;98975.92;129601;1264;106615;-80
2024/02/05 13:05:14;;;;;;;27.30;14.70;;;;;;;7.89;79.24;98974.75;129544;1270;108698;-80
2024/02/05 13:08:20;;;;;;;7.50;2.50;;;;;;;7.78;79.27;98979.31;129570;1264;108678;-79
2024/02/05 13:11:29;;;;;;;4.30;2.30;;;;;;;7.61;78.92;98983.80;129549;1270;108870;-80
2024/02/05 13:14:37;;;;;;;27.80;15.40;;;;;;;7.51;78.99;98987.52;129941;1263;107858;-80
2024/02/05 13:17:44;;;;;;;4.30;2.20;;;;;;;7.45;79.60;98988.13;129717;1267;106512;-79
2024/02/05 13:20:50;;;;;;;33.20;19.20;;;;;;;7.39;80.27;98996.75;129609;1270;108436;-79
2024/02/05 13:23:56;;;;;;;5.40;2.50;;;;;;;7.33;80.56;98993.73;129580;1264;108423;-81
2024/02/05 13:27:01;;;;;;;12.40;6.20;;;;;;;7.28;80.66;98998.94;129706;1270;106502;-81
2024/02/05 13:30:09;;;;;;;9.30;3.80;;;;;;;7.26;81.34;99006.11;129797;1269;106748;-79
2024/02/05 13:33:16;;;;;;;57.80;30.80;;;;;;;7.22;81.94;99010.61;129687;1270;107692;-80
2024/02/05 13:36:22;;;;;;;22.90;15.70;;;;;;;7.20;81.67;99009.38;129571;1277;107665;-80
2024/02/05 13:39:28;;;;;;;5.50;3.20;;;;;;;7.18;82.25;99017.27;129548;1269;108814;-79
2024/02/05 13:42:38;;;;;;;97.80;43.60;;;;;;;7.11;83.02;99018.81;129704;1271;108869;-79
2024/02/05 13:45:50;;;;;;;26.80;10.90;;;;;;;7.11;82.71;99024.49;129785;1264;107832;-79
2024/02/05 13:49:12;;;;;;;30.50;13.20;;;;;;;7.03;83.19;99031.09;130118;1266;109555;-79
2024/02/05 13:52:24;;;;;;;238.70;83.80;;;;;;;6.99;83.04;99038.42;129459;1272;106626;-80
2024/02/05 13:55:31;;;;;;;61.70;20.70;;;;;;;7.01;83.15;99044.42;129613;1264;108568;-82
2024/02/05 13:58:39;;;;;;;125.70;47.20;;;;;;;6.99;84.09;99048.22;129596;1278;107580;-77
2024/02/05 14:01:56;;;;;;;26.00;11.50;;;;;;;6.93;83.39;99057.69;129553;1270;107428;-81
2024/02/05 14:05:02;;;;;;;10.70;4.50;;;;;;;6.86;84.47;99055.70;129612;1270;107287;-80
2024/02/05 14:08:10;;;;;;;23.00;8.70;;;;;;;6.80;83.78;99062.14;129528;1269;108597;-80
2024/02/05 14:11:21;;;;;;;19.40;7.60;;;;;;;6.84;83.45;99059.84;129630;1267;105890;-82
2024/02/05 14:14:29;;;;;;;17.20;7.80;;;;;;;6.84;84.64;99050.81;129626;1270;108771;-81
2024/02/05 14:17:36;;;;;;;198.10;82.80;;;;;;;6.80;85.30;99047.56;129586;1269;108833;-81
2024/02/05 14:20:42;;;;;;;23.50;13.90;;;;;;;6.79;84.83;99055.94;129705;1270;108619;-80